sensor_id;sensor_type;location;lat;lon;timestamp;P1;durP1;ratioP1;P2;durP2;ratioP2
56860;SDS011;42744;51.094;3.490;2023-02-01T00:00:12;20.90;;;4.07;;
56860;SDS011;42744;51.094;3.490;2023-02-01T00:02:38;26.03;;;3.90;;
56860;SDS011;42744;51.094;3.490;2023-02-01T00:05:09;21.73;;;3.80;;
56860;SDS011;42744;51.094;3.490;2023-02-01T00:07:36;19.57;;;4.13;;
56860;SDS011;42744;51.094;3.490;2023-02-01T00:10:03;21.73;;;4.77;;
56860;SDS011;42744;51.094;3.490;2023-02-01T00:12:30;17.10;;;3.33;;
56860;SDS011;42744;51.094;3.490;2023-02-01T00:14:57;17.73;;;3.77;;
56860;SDS011;42744;51.094;3.490;2023-02-01T00:17:23;15.03;;;3.67;;
56860;SDS011;42744;51.094;3.490;2023-02-01T00:19:50;16.43;;;3.87;;
56860;SDS011;42744;51.094;3.490;2023-02-01T00:22:16;15.63;;;3.90;;
56860;SDS011;42744;51.094;3.490;2023-02-01T00:24:42;19.10;;;3.90;;
56860;SDS011;42744;51.094;3.490;2023-02-01T00:27:08;19.80;;;3.47;;
56860;SDS011;42744;51.094;3.490;2023-02-01T00:29:34;15.37;;;3.30;;
56860;SDS011;42744;51.094;3.490;2023-02-01T00:32:00;14.87;;;3.00;;
56860;SDS011;42744;51.094;3.490;2023-02-01T00:34:26;19.93;;;4.13;;
56860;SDS011;42744;51.094;3.490;2023-02-01T00:36:52;17.97;;;3.37;;
56860;SDS011;42744;51.094;3.490;2023-02-01T00:39:19;17.60;;;3.67;;
56860;SDS011;42744;51.094;3.490;2023-02-01T00:41:45;15.17;;;3.53;;
56860;SDS011;42744;51.094;3.490;2023-02-01T00:44:11;15.93;;;4.03;;
56860;SDS011;42744;51.094;3.490;2023-02-01T00:46:37;16.67;;;4.10;;
56860;SDS011;42744;51.094;3.490;2023-02-01T00:49:03;20.07;;;4.13;;
56860;SDS011;42744;51.094;3.490;2023-02-01T00:51:29;19.73;;;4.10;;
56860;SDS011;42744;51.094;3.490;2023-02-01T00:53:56;19.17;;;4.53;;
56860;SDS011;42744;51.094;3.490;2023-02-01T00:56:22;13.40;;;3.37;;
56860;SDS011;42744;51.094;3.490;2023-02-01T00:58:49;21.73;;;3.97;;
56860;SDS011;42744;51.094;3.490;2023-02-01T01:01:25;20.67;;;3.93;;
56860;SDS011;42744;51.094;3.490;2023-02-01T01:03:58;20.17;;;4.30;;
56860;SDS011;42744;51.094;3.490;2023-02-01T01:06:26;15.07;;;3.20;;
56860;SDS011;42744;51.094;3.490;2023-02-01T01:08:54;15.00;;;3.17;;
56860;SDS011;42744;51.094;3.490;2023-02-01T01:11:23;21.70;;;5.17;;
56860;SDS011;42744;51.094;3.490;2023-02-01T01:13:52;17.67;;;4.73;;
56860;SDS011;42744;51.094;3.490;2023-02-01T01:16:19;17.77;;;4.10;;
56860;SDS011;42744;51.094;3.490;2023-02-01T01:18:46;22.60;;;3.73;;
56860;SDS011;42744;51.094;3.490;2023-02-01T01:21:14;12.63;;;2.97;;
56860;SDS011;42744;51.094;3.490;2023-02-01T01:23:41;17.00;;;5.07;;
56860;SDS011;42744;51.094;3.490;2023-02-01T01:26:09;18.83;;;3.93;;
56860;SDS011;42744;51.094;3.490;2023-02-01T01:28:39;18.73;;;3.27;;
56860;SDS011;42744;51.094;3.490;2023-02-01T01:31:07;14.27;;;3.23;;
56860;SDS011;42744;51.094;3.490;2023-02-01T01:33:34;15.77;;;3.70;;
56860;SDS011;42744;51.094;3.490;2023-02-01T01:36:01;15.27;;;3.30;;
56860;SDS011;42744;51.094;3.490;2023-02-01T01:38:27;12.70;;;3.47;;
56860;SDS011;42744;51.094;3.490;2023-02-01T01:40:53;18.77;;;3.13;;
56860;SDS011;42744;51.094;3.490;2023-02-01T01:43:19;18.50;;;3.50;;
56860;SDS011;42744;51.094;3.490;2023-02-01T01:45:49;20.30;;;3.80;;
56860;SDS011;42744;51.094;3.490;2023-02-01T01:50:58;14.00;;;3.27;;
56860;SDS011;42744;51.094;3.490;2023-02-01T01:53:33;17.20;;;3.40;;
56860;SDS011;42744;51.094;3.490;2023-02-01T01:56:11;15.17;;;3.30;;
56860;SDS011;42744;51.094;3.490;2023-02-01T01:58:38;14.37;;;3.30;;
56860;SDS011;42744;51.094;3.490;2023-02-01T02:01:04;19.40;;;3.17;;
56860;SDS011;42744;51.094;3.490;2023-02-01T02:03:38;18.10;;;3.50;;
56860;SDS011;42744;51.094;3.490;2023-02-01T02:06:11;13.77;;;2.73;;
56860;SDS011;42744;51.094;3.490;2023-02-01T02:09:00;26.37;;;3.80;;
56860;SDS011;42744;51.094;3.490;2023-02-01T02:11:27;15.70;;;2.87;;
56860;SDS011;42744;51.094;3.490;2023-02-01T02:13:53;20.07;;;4.13;;
56860;SDS011;42744;51.094;3.490;2023-02-01T02:16:32;14.10;;;2.77;;
56860;SDS011;42744;51.094;3.490;2023-02-01T02:30:14;14.10;;;3.47;;
56860;SDS011;42744;51.094;3.490;2023-02-01T02:35:26;18.47;;;3.87;;
56860;SDS011;42744;51.094;3.490;2023-02-01T02:37:58;19.37;;;3.53;;
56860;SDS011;42744;51.094;3.490;2023-02-01T02:40:43;14.17;;;3.30;;
56860;SDS011;42744;51.094;3.490;2023-02-01T02:46:37;16.93;;;3.33;;
56860;SDS011;42744;51.094;3.490;2023-02-01T02:49:28;19.57;;;3.70;;
56860;SDS011;42744;51.094;3.490;2023-02-01T02:52:34;19.87;;;4.50;;
56860;SDS011;42744;51.094;3.490;2023-02-01T02:55:25;19.90;;;3.23;;
56860;SDS011;42744;51.094;3.490;2023-02-01T02:57:53;21.47;;;3.60;;
56860;SDS011;42744;51.094;3.490;2023-02-01T03:00:40;18.80;;;3.40;;
56860;SDS011;42744;51.094;3.490;2023-02-01T03:03:26;19.83;;;3.17;;
56860;SDS011;42744;51.094;3.490;2023-02-01T03:06:14;18.23;;;2.90;;
56860;SDS011;42744;51.094;3.490;2023-02-01T03:08:44;21.33;;;4.37;;
56860;SDS011;42744;51.094;3.490;2023-02-01T03:11:11;21.33;;;3.27;;
56860;SDS011;42744;51.094;3.490;2023-02-01T03:13:56;18.00;;;2.67;;
56860;SDS011;42744;51.094;3.490;2023-02-01T03:17:00;21.80;;;3.57;;
56860;SDS011;42744;51.094;3.490;2023-02-01T03:19:30;16.83;;;3.33;;
56860;SDS011;42744;51.094;3.490;2023-02-01T03:22:07;16.97;;;3.37;;
56860;SDS011;42744;51.094;3.490;2023-02-01T03:24:39;15.33;;;3.43;;
56860;SDS011;42744;51.094;3.490;2023-02-01T03:27:34;18.57;;;3.80;;
56860;SDS011;42744;51.094;3.490;2023-02-01T03:32:37;17.87;;;4.70;;
56860;SDS011;42744;51.094;3.490;2023-02-01T03:38:25;15.40;;;3.43;;
56860;SDS011;42744;51.094;3.490;2023-02-01T03:41:18;23.67;;;3.57;;
56860;SDS011;42744;51.094;3.490;2023-02-01T03:43:58;13.73;;;2.80;;
56860;SDS011;42744;51.094;3.490;2023-02-01T03:46:54;13.17;;;2.83;;
56860;SDS011;42744;51.094;3.490;2023-02-01T03:49:30;18.47;;;3.13;;
56860;SDS011;42744;51.094;3.490;2023-02-01T03:52:13;16.47;;;3.50;;
56860;SDS011;42744;51.094;3.490;2023-02-01T03:54:43;18.77;;;3.63;;
56860;SDS011;42744;51.094;3.490;2023-02-01T03:57:13;23.57;;;3.47;;
56860;SDS011;42744;51.094;3.490;2023-02-01T03:59:42;22.10;;;4.67;;
56860;SDS011;42744;51.094;3.490;2023-02-01T04:02:10;18.63;;;3.43;;
56860;SDS011;42744;51.094;3.490;2023-02-01T04:04:37;19.77;;;3.30;;
56860;SDS011;42744;51.094;3.490;2023-02-01T04:07:03;17.87;;;3.07;;
56860;SDS011;42744;51.094;3.490;2023-02-01T04:09:29;14.07;;;3.50;;
56860;SDS011;42744;51.094;3.490;2023-02-01T04:11:55;18.73;;;3.97;;
56860;SDS011;42744;51.094;3.490;2023-02-01T04:14:21;27.47;;;4.10;;
56860;SDS011;42744;51.094;3.490;2023-02-01T04:16:47;15.80;;;3.53;;
56860;SDS011;42744;51.094;3.490;2023-02-01T04:19:13;18.63;;;3.53;;
56860;SDS011;42744;51.094;3.490;2023-02-01T04:21:42;18.33;;;3.97;;
56860;SDS011;42744;51.094;3.490;2023-02-01T04:24:08;22.30;;;3.23;;
56860;SDS011;42744;51.094;3.490;2023-02-01T04:26:36;19.73;;;3.70;;
56860;SDS011;42744;51.094;3.490;2023-02-01T04:29:01;17.40;;;3.73;;
56860;SDS011;42744;51.094;3.490;2023-02-01T04:31:27;18.30;;;3.43;;
56860;SDS011;42744;51.094;3.490;2023-02-01T04:33:55;15.10;;;3.60;;
56860;SDS011;42744;51.094;3.490;2023-02-01T04:36:22;21.60;;;3.47;;
56860;SDS011;42744;51.094;3.490;2023-02-01T04:38:49;18.63;;;3.53;;
56860;SDS011;42744;51.094;3.490;2023-02-01T04:41:16;18.40;;;3.47;;
56860;SDS011;42744;51.094;3.490;2023-02-01T04:43:45;18.07;;;4.17;;
56860;SDS011;42744;51.094;3.490;2023-02-01T04:46:12;16.30;;;3.77;;
56860;SDS011;42744;51.094;3.490;2023-02-01T04:48:38;16.73;;;3.17;;
56860;SDS011;42744;51.094;3.490;2023-02-01T04:51:04;21.00;;;3.83;;
56860;SDS011;42744;51.094;3.490;2023-02-01T04:53:31;19.67;;;3.63;;
56860;SDS011;42744;51.094;3.490;2023-02-01T04:55:57;18.10;;;3.27;;
56860;SDS011;42744;51.094;3.490;2023-02-01T04:58:23;25.50;;;3.53;;
56860;SDS011;42744;51.094;3.490;2023-02-01T05:00:49;29.97;;;4.53;;
56860;SDS011;42744;51.094;3.490;2023-02-01T05:03:17;16.57;;;4.27;;
56860;SDS011;42744;51.094;3.490;2023-02-01T05:05:44;22.13;;;4.50;;
56860;SDS011;42744;51.094;3.490;2023-02-01T05:08:09;16.73;;;3.70;;
56860;SDS011;42744;51.094;3.490;2023-02-01T05:10:36;20.97;;;3.60;;
56860;SDS011;42744;51.094;3.490;2023-02-01T05:13:05;14.90;;;3.17;;
56860;SDS011;42744;51.094;3.490;2023-02-01T05:15:54;23.87;;;3.63;;
56860;SDS011;42744;51.094;3.490;2023-02-01T05:18:20;25.73;;;3.90;;
56860;SDS011;42744;51.094;3.490;2023-02-01T05:20:46;19.17;;;3.80;;
56860;SDS011;42744;51.094;3.490;2023-02-01T05:23:12;20.20;;;3.57;;
56860;SDS011;42744;51.094;3.490;2023-02-01T05:25:38;22.60;;;4.20;;
56860;SDS011;42744;51.094;3.490;2023-02-01T05:28:04;21.53;;;4.17;;
56860;SDS011;42744;51.094;3.490;2023-02-01T05:30:30;18.57;;;4.37;;
56860;SDS011;42744;51.094;3.490;2023-02-01T05:32:57;18.07;;;3.50;;
56860;SDS011;42744;51.094;3.490;2023-02-01T05:35:23;18.63;;;3.37;;
56860;SDS011;42744;51.094;3.490;2023-02-01T05:37:49;17.67;;;3.63;;
56860;SDS011;42744;51.094;3.490;2023-02-01T05:40:15;27.20;;;4.07;;
56860;SDS011;42744;51.094;3.490;2023-02-01T05:42:41;19.43;;;3.90;;
56860;SDS011;42744;51.094;3.490;2023-02-01T05:45:08;20.90;;;4.43;;
56860;SDS011;42744;51.094;3.490;2023-02-01T05:47:34;22.17;;;4.03;;
56860;SDS011;42744;51.094;3.490;2023-02-01T05:50:03;21.73;;;4.47;;
56860;SDS011;42744;51.094;3.490;2023-02-01T05:52:30;17.20;;;3.47;;
56860;SDS011;42744;51.094;3.490;2023-02-01T05:54:57;19.47;;;4.53;;
56860;SDS011;42744;51.094;3.490;2023-02-01T05:57:23;18.43;;;4.30;;
56860;SDS011;42744;51.094;3.490;2023-02-01T05:59:49;22.27;;;4.20;;
56860;SDS011;42744;51.094;3.490;2023-02-01T06:02:15;18.23;;;4.23;;
56860;SDS011;42744;51.094;3.490;2023-02-01T06:04:42;17.67;;;4.43;;
56860;SDS011;42744;51.094;3.490;2023-02-01T06:07:08;20.30;;;3.93;;
56860;SDS011;42744;51.094;3.490;2023-02-01T06:09:35;21.53;;;3.53;;
56860;SDS011;42744;51.094;3.490;2023-02-01T06:12:02;16.50;;;4.07;;
56860;SDS011;42744;51.094;3.490;2023-02-01T06:14:29;17.47;;;3.43;;
56860;SDS011;42744;51.094;3.490;2023-02-01T06:16:55;22.73;;;3.80;;
56860;SDS011;42744;51.094;3.490;2023-02-01T06:19:22;17.60;;;3.47;;
56860;SDS011;42744;51.094;3.490;2023-02-01T06:21:49;20.90;;;3.57;;
56860;SDS011;42744;51.094;3.490;2023-02-01T06:24:15;21.23;;;4.70;;
56860;SDS011;42744;51.094;3.490;2023-02-01T06:26:41;19.27;;;4.73;;
56860;SDS011;42744;51.094;3.490;2023-02-01T06:29:09;16.23;;;4.53;;
56860;SDS011;42744;51.094;3.490;2023-02-01T06:31:35;24.33;;;4.83;;
56860;SDS011;42744;51.094;3.490;2023-02-01T06:34:01;22.43;;;4.53;;
56860;SDS011;42744;51.094;3.490;2023-02-01T06:36:28;21.77;;;4.67;;
56860;SDS011;42744;51.094;3.490;2023-02-01T06:38:55;17.43;;;3.90;;
56860;SDS011;42744;51.094;3.490;2023-02-01T06:41:22;23.80;;;3.87;;
56860;SDS011;42744;51.094;3.490;2023-02-01T06:43:48;24.53;;;4.00;;
56860;SDS011;42744;51.094;3.490;2023-02-01T06:46:14;18.50;;;3.17;;
56860;SDS011;42744;51.094;3.490;2023-02-01T06:48:41;19.57;;;4.17;;
56860;SDS011;42744;51.094;3.490;2023-02-01T06:51:16;19.23;;;3.90;;
56860;SDS011;42744;51.094;3.490;2023-02-01T06:53:48;19.30;;;4.37;;
56860;SDS011;42744;51.094;3.490;2023-02-01T06:56:14;21.77;;;3.83;;
56860;SDS011;42744;51.094;3.490;2023-02-01T06:58:40;21.53;;;4.87;;
56860;SDS011;42744;51.094;3.490;2023-02-01T07:01:07;23.70;;;4.40;;
56860;SDS011;42744;51.094;3.490;2023-02-01T07:03:34;18.17;;;4.33;;
56860;SDS011;42744;51.094;3.490;2023-02-01T07:06:01;21.03;;;4.43;;
56860;SDS011;42744;51.094;3.490;2023-02-01T07:08:28;26.40;;;4.23;;
56860;SDS011;42744;51.094;3.490;2023-02-01T07:10:54;19.60;;;4.70;;
56860;SDS011;42744;51.094;3.490;2023-02-01T07:13:20;24.43;;;5.00;;
56860;SDS011;42744;51.094;3.490;2023-02-01T07:15:46;21.30;;;4.37;;
56860;SDS011;42744;51.094;3.490;2023-02-01T07:18:13;25.33;;;4.40;;
56860;SDS011;42744;51.094;3.490;2023-02-01T07:20:40;21.17;;;4.00;;
56860;SDS011;42744;51.094;3.490;2023-02-01T07:23:08;22.37;;;4.27;;
56860;SDS011;42744;51.094;3.490;2023-02-01T07:25:36;17.70;;;4.53;;
56860;SDS011;42744;51.094;3.490;2023-02-01T07:28:02;27.67;;;4.63;;
56860;SDS011;42744;51.094;3.490;2023-02-01T07:30:28;24.50;;;5.10;;
56860;SDS011;42744;51.094;3.490;2023-02-01T07:32:54;23.93;;;5.57;;
56860;SDS011;42744;51.094;3.490;2023-02-01T07:35:20;25.17;;;4.50;;
56860;SDS011;42744;51.094;3.490;2023-02-01T07:37:46;18.53;;;3.77;;
56860;SDS011;42744;51.094;3.490;2023-02-01T07:40:12;17.20;;;4.07;;
56860;SDS011;42744;51.094;3.490;2023-02-01T07:42:38;24.63;;;4.53;;
56860;SDS011;42744;51.094;3.490;2023-02-01T07:45:04;21.87;;;4.13;;
56860;SDS011;42744;51.094;3.490;2023-02-01T07:47:31;22.07;;;5.13;;
56860;SDS011;42744;51.094;3.490;2023-02-01T07:49:57;23.80;;;4.80;;
56860;SDS011;42744;51.094;3.490;2023-02-01T07:52:23;24.50;;;4.07;;
56860;SDS011;42744;51.094;3.490;2023-02-01T07:54:49;15.70;;;3.93;;
56860;SDS011;42744;51.094;3.490;2023-02-01T07:57:15;25.90;;;3.77;;
56860;SDS011;42744;51.094;3.490;2023-02-01T07:59:41;25.83;;;4.53;;
56860;SDS011;42744;51.094;3.490;2023-02-01T08:02:27;24.53;;;4.67;;
56860;SDS011;42744;51.094;3.490;2023-02-01T08:04:53;18.17;;;4.33;;
56860;SDS011;42744;51.094;3.490;2023-02-01T08:07:19;18.23;;;3.83;;
56860;SDS011;42744;51.094;3.490;2023-02-01T08:09:45;19.10;;;4.23;;
56860;SDS011;42744;51.094;3.490;2023-02-01T08:12:11;22.97;;;4.73;;
56860;SDS011;42744;51.094;3.490;2023-02-01T08:14:37;18.67;;;4.33;;
56860;SDS011;42744;51.094;3.490;2023-02-01T08:17:05;21.60;;;4.07;;
56860;SDS011;42744;51.094;3.490;2023-02-01T08:19:31;24.77;;;3.93;;
56860;SDS011;42744;51.094;3.490;2023-02-01T08:21:57;18.40;;;3.10;;
56860;SDS011;42744;51.094;3.490;2023-02-01T08:24:24;23.47;;;4.87;;
56860;SDS011;42744;51.094;3.490;2023-02-01T08:26:50;25.70;;;4.00;;
56860;SDS011;42744;51.094;3.490;2023-02-01T08:29:16;21.43;;;4.57;;
56860;SDS011;42744;51.094;3.490;2023-02-01T08:31:42;17.43;;;3.57;;
56860;SDS011;42744;51.094;3.490;2023-02-01T08:34:11;21.50;;;3.87;;
56860;SDS011;42744;51.094;3.490;2023-02-01T08:36:37;21.77;;;3.20;;
56860;SDS011;42744;51.094;3.490;2023-02-01T08:39:03;24.03;;;4.93;;
56860;SDS011;42744;51.094;3.490;2023-02-01T08:41:34;23.53;;;4.07;;
56860;SDS011;42744;51.094;3.490;2023-02-01T08:44:00;20.40;;;3.77;;
56860;SDS011;42744;51.094;3.490;2023-02-01T08:46:26;21.17;;;4.13;;
56860;SDS011;42744;51.094;3.490;2023-02-01T08:48:52;20.60;;;3.83;;
56860;SDS011;42744;51.094;3.490;2023-02-01T08:51:19;16.87;;;3.53;;
56860;SDS011;42744;51.094;3.490;2023-02-01T08:53:47;18.50;;;3.40;;
56860;SDS011;42744;51.094;3.490;2023-02-01T08:56:15;19.07;;;3.27;;
56860;SDS011;42744;51.094;3.490;2023-02-01T08:58:42;20.40;;;2.83;;
56860;SDS011;42744;51.094;3.490;2023-02-01T09:01:13;17.80;;;3.07;;
56860;SDS011;42744;51.094;3.490;2023-02-01T09:03:40;22.87;;;3.93;;
56860;SDS011;42744;51.094;3.490;2023-02-01T09:06:07;15.47;;;3.30;;
56860;SDS011;42744;51.094;3.490;2023-02-01T09:08:36;25.80;;;3.83;;
56860;SDS011;42744;51.094;3.490;2023-02-01T09:11:08;21.17;;;3.43;;
56860;SDS011;42744;51.094;3.490;2023-02-01T09:13:37;12.20;;;3.40;;
56860;SDS011;42744;51.094;3.490;2023-02-01T09:16:03;15.33;;;3.20;;
56860;SDS011;42744;51.094;3.490;2023-02-01T09:18:29;16.27;;;3.30;;
56860;SDS011;42744;51.094;3.490;2023-02-01T09:20:55;21.40;;;3.57;;
56860;SDS011;42744;51.094;3.490;2023-02-01T09:23:21;21.80;;;3.47;;
56860;SDS011;42744;51.094;3.490;2023-02-01T09:25:48;17.30;;;2.80;;
56860;SDS011;42744;51.094;3.490;2023-02-01T09:28:17;14.93;;;2.97;;
56860;SDS011;42744;51.094;3.490;2023-02-01T09:30:43;17.67;;;2.90;;
56860;SDS011;42744;51.094;3.490;2023-02-01T09:33:10;17.77;;;3.77;;
56860;SDS011;42744;51.094;3.490;2023-02-01T09:35:35;14.47;;;2.80;;
56860;SDS011;42744;51.094;3.490;2023-02-01T09:38:03;21.23;;;3.90;;
56860;SDS011;42744;51.094;3.490;2023-02-01T09:40:29;19.50;;;3.53;;
56860;SDS011;42744;51.094;3.490;2023-02-01T09:45:49;12.33;;;2.93;;
56860;SDS011;42744;51.094;3.490;2023-02-01T09:48:37;21.00;;;2.60;;
56860;SDS011;42744;51.094;3.490;2023-02-01T09:51:06;16.50;;;2.73;;
56860;SDS011;42744;51.094;3.490;2023-02-01T09:53:41;13.37;;;2.50;;
56860;SDS011;42744;51.094;3.490;2023-02-01T09:56:25;12.83;;;3.00;;
56860;SDS011;42744;51.094;3.490;2023-02-01T09:59:04;15.13;;;3.00;;
56860;SDS011;42744;51.094;3.490;2023-02-01T10:01:40;12.13;;;2.43;;
56860;SDS011;42744;51.094;3.490;2023-02-01T10:04:09;18.57;;;2.57;;
56860;SDS011;42744;51.094;3.490;2023-02-01T10:06:44;11.73;;;2.37;;
56860;SDS011;42744;51.094;3.490;2023-02-01T10:12:34;13.63;;;2.97;;
56860;SDS011;42744;51.094;3.490;2023-02-01T10:15:42;11.97;;;2.20;;
56860;SDS011;42744;51.094;3.490;2023-02-01T10:26:42;16.17;;;2.40;;
56860;SDS011;42744;51.094;3.490;2023-02-01T10:29:16;15.63;;;1.90;;
56860;SDS011;42744;51.094;3.490;2023-02-01T10:31:50;11.03;;;2.07;;
56860;SDS011;42744;51.094;3.490;2023-02-01T10:34:21;13.07;;;2.37;;
56860;SDS011;42744;51.094;3.490;2023-02-01T10:39:44;14.13;;;2.30;;
56860;SDS011;42744;51.094;3.490;2023-02-01T10:42:16;12.80;;;2.33;;
56860;SDS011;42744;51.094;3.490;2023-02-01T10:44:45;15.77;;;4.53;;
56860;SDS011;42744;51.094;3.490;2023-02-01T10:47:13;13.93;;;2.50;;
56860;SDS011;42744;51.094;3.490;2023-02-01T10:49:49;13.80;;;2.30;;
56860;SDS011;42744;51.094;3.490;2023-02-01T10:54:56;12.50;;;2.70;;
56860;SDS011;42744;51.094;3.490;2023-02-01T10:57:23;14.60;;;2.67;;
56860;SDS011;42744;51.094;3.490;2023-02-01T10:59:51;12.93;;;4.67;;
56860;SDS011;42744;51.094;3.490;2023-02-01T11:07:50;11.90;;;2.13;;
56860;SDS011;42744;51.094;3.490;2023-02-01T11:10:35;9.23;;;1.83;;
56860;SDS011;42744;51.094;3.490;2023-02-01T11:13:17;12.67;;;1.80;;
56860;SDS011;42744;51.094;3.490;2023-02-01T11:15:44;15.03;;;2.63;;
56860;SDS011;42744;51.094;3.490;2023-02-01T11:18:20;7.20;;;1.60;;
56860;SDS011;42744;51.094;3.490;2023-02-01T11:20:53;15.30;;;2.03;;
56860;SDS011;42744;51.094;3.490;2023-02-01T11:23:24;13.17;;;2.23;;
56860;SDS011;42744;51.094;3.490;2023-02-01T11:25:55;12.47;;;2.40;;
56860;SDS011;42744;51.094;3.490;2023-02-01T11:28:33;10.00;;;1.93;;
56860;SDS011;42744;51.094;3.490;2023-02-01T11:31:05;9.70;;;1.83;;
56860;SDS011;42744;51.094;3.490;2023-02-01T11:33:35;9.37;;;2.63;;
56860;SDS011;42744;51.094;3.490;2023-02-01T11:36:16;11.27;;;2.07;;
56860;SDS011;42744;51.094;3.490;2023-02-01T11:41:35;8.43;;;1.63;;
56860;SDS011;42744;51.094;3.490;2023-02-01T11:44:22;6.93;;;1.83;;
56860;SDS011;42744;51.094;3.490;2023-02-01T11:47:21;10.07;;;2.00;;
56860;SDS011;42744;51.094;3.490;2023-02-01T11:49:50;8.47;;;1.30;;
56860;SDS011;42744;51.094;3.490;2023-02-01T12:04:10;10.80;;;2.23;;
56860;SDS011;42744;51.094;3.490;2023-02-01T12:07:03;14.47;;;2.00;;
56860;SDS011;42744;51.094;3.490;2023-02-01T12:15:30;9.97;;;2.20;;
56860;SDS011;42744;51.094;3.490;2023-02-01T12:31:44;6.73;;;1.73;;
56860;SDS011;42744;51.094;3.490;2023-02-01T12:34:27;11.17;;;1.70;;
56860;SDS011;42744;51.094;3.490;2023-02-01T12:42:38;7.20;;;1.80;;
56860;SDS011;42744;51.094;3.490;2023-02-01T12:47:54;11.43;;;2.33;;
56860;SDS011;42744;51.094;3.490;2023-02-01T12:50:39;12.70;;;2.83;;
56860;SDS011;42744;51.094;3.490;2023-02-01T12:55:53;7.67;;;1.83;;
56860;SDS011;42744;51.094;3.490;2023-02-01T13:00:55;9.13;;;1.60;;
56860;SDS011;42744;51.094;3.490;2023-02-01T13:06:41;13.07;;;1.80;;
56860;SDS011;42744;51.094;3.490;2023-02-01T13:09:25;11.63;;;2.13;;
56860;SDS011;42744;51.094;3.490;2023-02-01T13:12:10;9.83;;;2.03;;
56860;SDS011;42744;51.094;3.490;2023-02-01T13:14:51;11.43;;;2.17;;
56860;SDS011;42744;51.094;3.490;2023-02-01T13:17:29;7.87;;;1.73;;
56860;SDS011;42744;51.094;3.490;2023-02-01T13:20:05;8.27;;;1.90;;
56860;SDS011;42744;51.094;3.490;2023-02-01T13:23:00;7.50;;;2.53;;
56860;SDS011;42744;51.094;3.490;2023-02-01T13:28:25;15.33;;;2.37;;
56860;SDS011;42744;51.094;3.490;2023-02-01T13:39:25;13.40;;;2.57;;
56860;SDS011;42744;51.094;3.490;2023-02-01T13:42:05;11.30;;;2.13;;
56860;SDS011;42744;51.094;3.490;2023-02-01T13:44:38;13.73;;;2.17;;
56860;SDS011;42744;51.094;3.490;2023-02-01T13:47:24;8.90;;;2.03;;
56860;SDS011;42744;51.094;3.490;2023-02-01T13:50:00;15.27;;;2.53;;
56860;SDS011;42744;51.094;3.490;2023-02-01T13:52:54;12.10;;;2.20;;
56860;SDS011;42744;51.094;3.490;2023-02-01T13:58:01;11.93;;;2.50;;
56860;SDS011;42744;51.094;3.490;2023-02-01T14:00:37;13.80;;;2.23;;
56860;SDS011;42744;51.094;3.490;2023-02-01T14:13:19;11.57;;;2.57;;
56860;SDS011;42744;51.094;3.490;2023-02-01T14:24:20;12.83;;;2.77;;
56860;SDS011;42744;51.094;3.490;2023-02-01T14:26:53;13.23;;;2.77;;
56860;SDS011;42744;51.094;3.490;2023-02-01T14:29:25;19.47;;;3.10;;
56860;SDS011;42744;51.094;3.490;2023-02-01T14:32:03;18.67;;;3.97;;
56860;SDS011;42744;51.094;3.490;2023-02-01T14:37:32;19.97;;;3.27;;
56860;SDS011;42744;51.094;3.490;2023-02-01T14:39:59;15.90;;;2.97;;
56860;SDS011;42744;51.094;3.490;2023-02-01T14:42:37;16.87;;;3.47;;
56860;SDS011;42744;51.094;3.490;2023-02-01T14:47:50;15.53;;;2.80;;
56860;SDS011;42744;51.094;3.490;2023-02-01T14:53:01;19.13;;;3.33;;
56860;SDS011;42744;51.094;3.490;2023-02-01T15:01:24;15.23;;;4.10;;
56860;SDS011;42744;51.094;3.490;2023-02-01T15:09:07;17.60;;;3.63;;
56860;SDS011;42744;51.094;3.490;2023-02-01T15:14:42;13.03;;;2.93;;
56860;SDS011;42744;51.094;3.490;2023-02-01T15:17:18;9.80;;;2.93;;
56860;SDS011;42744;51.094;3.490;2023-02-01T15:20:00;18.27;;;3.50;;
56860;SDS011;42744;51.094;3.490;2023-02-01T15:22:51;13.10;;;3.10;;
56860;SDS011;42744;51.094;3.490;2023-02-01T15:25:29;18.83;;;3.40;;
56860;SDS011;42744;51.094;3.490;2023-02-01T15:27:57;17.27;;;3.37;;
56860;SDS011;42744;51.094;3.490;2023-02-01T15:32:52;16.10;;;2.97;;
56860;SDS011;42744;51.094;3.490;2023-02-01T15:38:19;16.10;;;3.27;;
56860;SDS011;42744;51.094;3.490;2023-02-01T15:43:31;14.83;;;3.93;;
56860;SDS011;42744;51.094;3.490;2023-02-01T15:46:03;16.03;;;2.93;;
56860;SDS011;42744;51.094;3.490;2023-02-01T15:48:35;23.83;;;4.83;;
56860;SDS011;42744;51.094;3.490;2023-02-01T15:51:11;16.33;;;2.77;;
56860;SDS011;42744;51.094;3.490;2023-02-01T15:53:44;20.57;;;4.03;;
56860;SDS011;42744;51.094;3.490;2023-02-01T15:56:12;19.67;;;3.20;;
56860;SDS011;42744;51.094;3.490;2023-02-01T15:58:41;14.83;;;2.53;;
56860;SDS011;42744;51.094;3.490;2023-02-01T16:01:11;16.03;;;2.67;;
56860;SDS011;42744;51.094;3.490;2023-02-01T16:03:40;14.00;;;2.80;;
56860;SDS011;42744;51.094;3.490;2023-02-01T16:06:09;16.17;;;3.73;;
56860;SDS011;42744;51.094;3.490;2023-02-01T16:08:52;17.90;;;3.83;;
56860;SDS011;42744;51.094;3.490;2023-02-01T16:13:58;19.87;;;4.50;;
56860;SDS011;42744;51.094;3.490;2023-02-01T16:16:26;19.80;;;4.60;;
56860;SDS011;42744;51.094;3.490;2023-02-01T16:18:53;16.13;;;3.87;;
56860;SDS011;42744;51.094;3.490;2023-02-01T16:21:19;17.37;;;3.20;;
56860;SDS011;42744;51.094;3.490;2023-02-01T16:23:49;25.23;;;3.70;;
56860;SDS011;42744;51.094;3.490;2023-02-01T16:26:16;20.77;;;3.47;;
56860;SDS011;42744;51.094;3.490;2023-02-01T16:28:43;14.70;;;3.33;;
56860;SDS011;42744;51.094;3.490;2023-02-01T16:31:13;17.83;;;3.70;;
56860;SDS011;42744;51.094;3.490;2023-02-01T16:33:53;22.43;;;3.97;;
56860;SDS011;42744;51.094;3.490;2023-02-01T16:36:20;18.80;;;4.40;;
56860;SDS011;42744;51.094;3.490;2023-02-01T16:38:47;15.57;;;3.63;;
56860;SDS011;42744;51.094;3.490;2023-02-01T16:41:15;17.27;;;3.50;;
56860;SDS011;42744;51.094;3.490;2023-02-01T16:43:44;26.23;;;4.17;;
56860;SDS011;42744;51.094;3.490;2023-02-01T16:46:12;22.67;;;4.10;;
56860;SDS011;42744;51.094;3.490;2023-02-01T16:48:43;25.47;;;3.80;;
56860;SDS011;42744;51.094;3.490;2023-02-01T16:51:13;22.70;;;4.97;;
56860;SDS011;42744;51.094;3.490;2023-02-01T16:53:42;19.27;;;4.67;;
56860;SDS011;42744;51.094;3.490;2023-02-01T16:56:19;17.83;;;3.63;;
56860;SDS011;42744;51.094;3.490;2023-02-01T16:58:50;18.43;;;3.13;;
56860;SDS011;42744;51.094;3.490;2023-02-01T17:01:17;17.00;;;3.67;;
56860;SDS011;42744;51.094;3.490;2023-02-01T17:03:44;17.70;;;3.73;;
56860;SDS011;42744;51.094;3.490;2023-02-01T17:06:11;24.67;;;4.57;;
56860;SDS011;42744;51.094;3.490;2023-02-01T17:08:44;18.37;;;4.20;;
56860;SDS011;42744;51.094;3.490;2023-02-01T17:11:23;21.93;;;4.03;;
56860;SDS011;42744;51.094;3.490;2023-02-01T17:13:49;19.50;;;4.90;;
56860;SDS011;42744;51.094;3.490;2023-02-01T17:16:24;18.40;;;4.40;;
56860;SDS011;42744;51.094;3.490;2023-02-01T17:21:22;16.90;;;4.67;;
56860;SDS011;42744;51.094;3.490;2023-02-01T17:23:49;17.93;;;4.47;;
56860;SDS011;42744;51.094;3.490;2023-02-01T17:26:18;25.13;;;5.13;;
56860;SDS011;42744;51.094;3.490;2023-02-01T17:28:44;22.77;;;5.10;;
56860;SDS011;42744;51.094;3.490;2023-02-01T17:31:14;19.30;;;5.43;;
56860;SDS011;42744;51.094;3.490;2023-02-01T17:33:41;24.87;;;5.27;;
56860;SDS011;42744;51.094;3.490;2023-02-01T17:36:14;21.10;;;4.43;;
56860;SDS011;42744;51.094;3.490;2023-02-01T17:38:42;16.13;;;4.33;;
56860;SDS011;42744;51.094;3.490;2023-02-01T17:41:12;19.40;;;4.33;;
56860;SDS011;42744;51.094;3.490;2023-02-01T17:43:39;21.23;;;4.40;;
56860;SDS011;42744;51.094;3.490;2023-02-01T17:46:10;25.93;;;4.80;;